createdAt,value
2018-09-30T00:00:46.238Z,97517.72
2018-09-30T00:03:13.699Z,97520.16
2018-09-30T00:05:41.182Z,97521.47
2018-09-30T00:08:08.660Z,97519.06
2018-09-30T00:10:36.077Z,97519.41
2018-09-30T00:13:03.569Z,97517.68
2018-09-30T00:15:31.009Z,97515.98
2018-09-30T00:17:58.430Z,97520.48
2018-09-30T00:20:25.910Z,97516.55
2018-09-30T00:22:53.367Z,97521.31
2018-09-30T00:28:18.896Z,97521.72
2018-09-30T00:30:46.369Z,97521.31
2018-09-30T00:33:13.860Z,97518.84
2018-09-30T00:35:42.110Z,97521.54
2018-09-30T00:38:09.581Z,97511.77
2018-09-30T00:40:37.019Z,97514.34
2018-09-30T00:43:04.664Z,97509.62
2018-09-30T00:45:32.126Z,97513.41
2018-09-30T00:47:59.567Z,97504.44
2018-09-30T00:50:27.104Z,97501.29
2018-09-30T00:52:54.562Z,97499.14
2018-09-30T00:55:22.017Z,97501.80
2018-09-30T00:57:49.475Z,97505.45
2018-09-30T01:00:16.932Z,97500.61
2018-09-30T01:02:44.402Z,97497.20
2018-09-30T01:05:11.892Z,97504.14
2018-09-30T01:07:39.339Z,97497.46
2018-09-30T01:10:06.797Z,97489.46
2018-09-30T01:12:34.234Z,97490.72
2018-09-30T01:15:01.711Z,97486.13
2018-09-30T01:17:29.126Z,97487.53
2018-09-30T01:19:56.549Z,97486.34
2018-09-30T01:22:24.088Z,97490.57
2018-09-30T01:24:51.490Z,97489.41
2018-09-30T01:27:18.921Z,97489.51
2018-09-30T01:29:46.347Z,97485.94
2018-09-30T01:32:13.841Z,97483.63
2018-09-30T01:34:41.304Z,97479.70
2018-09-30T01:37:08.709Z,97474.41
2018-09-30T01:39:36.157Z,97471.80
2018-09-30T01:42:03.668Z,97475.75
2018-09-30T01:44:31.104Z,97478.87
2018-09-30T01:46:59.055Z,97481.27
2018-09-30T01:49:26.482Z,97481.91
2018-09-30T01:51:53.930Z,97477.75
2018-09-30T01:54:21.735Z,97472.33
2018-09-30T01:56:49.171Z,97473.92
2018-09-30T01:59:16.594Z,97467.64
2018-09-30T02:01:44.046Z,97479.97
2018-09-30T02:04:11.655Z,97473.51
2018-09-30T02:06:39.142Z,97471.48
2018-09-30T02:09:06.581Z,97468.23
2018-09-30T02:11:34.180Z,97460.23
2018-09-30T02:14:01.611Z,97459.81
2018-09-30T02:16:29.077Z,97456.13
2018-09-30T02:18:56.610Z,97451.05
2018-09-30T02:21:24.104Z,97455.53
2018-09-30T02:23:52.282Z,97455.52
2018-09-30T02:26:19.783Z,97452.72
2018-09-30T02:28:47.200Z,97450.56
2018-09-30T02:31:14.637Z,97449.45
2018-09-30T02:33:42.132Z,97451.92
2018-09-30T02:36:09.606Z,97455.61
2018-09-30T02:38:37.082Z,97453.67
2018-09-30T02:41:04.514Z,97457.47
2018-09-30T02:43:31.924Z,97457.53
2018-09-30T02:45:59.355Z,97458.49
2018-09-30T02:48:26.844Z,97452.87
2018-09-30T02:50:54.280Z,97454.92
2018-09-30T02:53:21.694Z,97446.49
2018-09-30T02:55:49.211Z,97444.73
2018-09-30T02:58:16.678Z,97440.04
2018-09-30T03:00:44.195Z,97443.02
2018-09-30T03:03:11.671Z,97432.83
2018-09-30T03:05:39.183Z,97440.81
2018-09-30T03:11:00.614Z,97429.69
2018-09-30T03:13:28.059Z,97430.11
2018-09-30T03:15:55.577Z,97433.02
2018-09-30T03:18:23.014Z,97427.00
2018-09-30T03:20:50.458Z,97420.82
2018-09-30T03:23:17.915Z,97418.59
2018-09-30T03:25:45.392Z,97422.83
2018-09-30T03:28:13.012Z,97425.97
2018-09-30T03:30:40.636Z,97420.23
2018-09-30T03:33:08.059Z,97417.92
2018-09-30T03:35:35.549Z,97413.70
2018-09-30T03:38:03.044Z,97420.94
2018-09-30T03:40:30.493Z,97414.33
2018-09-30T03:42:57.901Z,97420.02
2018-09-30T03:45:25.367Z,97419.23
2018-09-30T03:47:52.838Z,97412.48
2018-09-30T03:50:20.464Z,97416.44
2018-09-30T03:52:47.899Z,97412.02
2018-09-30T03:55:15.345Z,97413.33
2018-09-30T03:57:42.816Z,97416.85
2018-09-30T04:00:10.288Z,97409.84
2018-09-30T04:02:37.836Z,97412.11
2018-09-30T04:05:05.231Z,97412.27
2018-09-30T04:07:32.654Z,97410.83
2018-09-30T04:10:00.220Z,97411.63
2018-09-30T04:12:27.629Z,97412.05
2018-09-30T04:14:55.035Z,97405.89
2018-09-30T04:17:22.597Z,97405.42
2018-09-30T04:19:50.008Z,97410.59
2018-09-30T04:22:17.450Z,97410.20
2018-09-30T04:24:44.934Z,97406.65
2018-09-30T04:27:12.448Z,97404.80
2018-09-30T04:29:39.872Z,97405.63
2018-09-30T04:32:07.355Z,97401.13
2018-09-30T04:34:34.816Z,97402.68
2018-09-30T04:37:02.283Z,97391.63
2018-09-30T04:39:29.929Z,97395.84
2018-09-30T04:41:57.410Z,97393.33
2018-09-30T04:44:24.812Z,97391.21
2018-09-30T04:46:52.265Z,97391.27
2018-09-30T04:49:19.758Z,97387.81
2018-09-30T04:51:47.195Z,97388.13
2018-09-30T04:54:14.836Z,97394.26
2018-09-30T04:56:42.263Z,97393.96
2018-09-30T04:59:09.681Z,97388.52
2018-09-30T05:01:37.257Z,97386.37
2018-09-30T05:04:04.817Z,97387.78
2018-09-30T05:06:32.322Z,97390.85
2018-09-30T05:08:59.816Z,97385.44
2018-09-30T05:11:27.315Z,97384.16
2018-09-30T05:13:54.701Z,97388.00
2018-09-30T05:16:22.177Z,97393.83
2018-09-30T05:18:49.637Z,97392.30
2018-09-30T05:21:17.088Z,97388.42
2018-09-30T05:23:44.577Z,97381.86
2018-09-30T05:26:12.084Z,97387.67
2018-09-30T05:28:39.641Z,97384.71
2018-09-30T05:31:07.130Z,97394.37
2018-09-30T05:33:34.562Z,97395.52
2018-09-30T05:36:02.038Z,97389.45
2018-09-30T05:38:29.589Z,97384.20
2018-09-30T05:40:57.128Z,97389.09
2018-09-30T05:43:24.617Z,97389.78
2018-09-30T05:45:52.117Z,97398.02
2018-09-30T05:48:19.585Z,97392.47
2018-09-30T05:50:47.048Z,97387.55
2018-09-30T05:53:14.502Z,97393.11
2018-09-30T05:55:41.948Z,97387.45
2018-09-30T05:58:09.469Z,97387.00
2018-09-30T06:00:36.842Z,97389.13
2018-09-30T06:03:04.312Z,97390.70
2018-09-30T06:05:31.738Z,97391.18
2018-09-30T06:07:59.157Z,97390.05
2018-09-30T06:10:26.672Z,97385.66
2018-09-30T06:12:54.103Z,97389.64
2018-09-30T06:15:21.567Z,97390.11
2018-09-30T06:17:49.109Z,97395.09
2018-09-30T06:20:16.635Z,97394.34
2018-09-30T06:22:44.113Z,97393.52
2018-09-30T06:25:11.604Z,97392.68
2018-09-30T06:27:39.059Z,97395.25
2018-09-30T06:30:06.462Z,97396.00
2018-09-30T06:32:33.909Z,97402.39
2018-09-30T06:35:01.369Z,97399.33
2018-09-30T06:37:28.971Z,97396.36
2018-09-30T06:39:56.416Z,97402.27
2018-09-30T06:42:23.846Z,97395.58
2018-09-30T06:44:51.274Z,97401.26
2018-09-30T06:47:18.796Z,97401.26
2018-09-30T06:49:46.271Z,97400.50
2018-09-30T06:52:13.742Z,97397.95
2018-09-30T06:54:41.211Z,97403.05
2018-09-30T06:57:08.669Z,97407.27
2018-09-30T06:59:35.678Z,97404.25
2018-09-30T07:02:02.707Z,97403.42
2018-09-30T07:04:29.721Z,97407.19
2018-09-30T07:06:56.695Z,97405.05
2018-09-30T07:09:23.713Z,97408.55
2018-09-30T07:11:50.736Z,97401.87
2018-09-30T07:14:18.435Z,97402.39
2018-09-30T07:19:20.749Z,97404.29
2018-09-30T07:21:47.751Z,97403.42
2018-09-30T07:24:16.479Z,97411.34
2018-09-30T07:26:43.517Z,97395.71
2018-09-30T07:29:10.499Z,97397.56
2018-09-30T07:31:37.479Z,97397.05
2018-09-30T07:34:04.527Z,97398.95
2018-09-30T07:36:31.535Z,97395.76
2018-09-30T07:38:58.530Z,97402.42
2018-09-30T07:41:25.561Z,97398.84
2018-09-30T07:43:52.582Z,97400.30
2018-09-30T07:46:19.705Z,97394.30
2018-09-30T07:48:46.697Z,97396.36
2018-09-30T07:51:13.724Z,97391.84
2018-09-30T07:53:40.711Z,97391.82
2018-09-30T07:56:07.745Z,97394.91
2018-09-30T07:58:34.822Z,97389.66
2018-09-30T08:01:02.040Z,97396.80
2018-09-30T08:03:29.050Z,97388.65
2018-09-30T08:05:56.064Z,97390.50
2018-09-30T08:08:23.081Z,97387.44
2018-09-30T08:10:50.093Z,97390.08
2018-09-30T08:13:17.549Z,97391.26
2018-09-30T08:15:44.556Z,97388.66
2018-09-30T08:18:11.580Z,97388.40
2018-09-30T08:20:39.088Z,97387.72
2018-09-30T08:23:07.062Z,97387.54
2018-09-30T08:25:34.523Z,97387.17
2018-09-30T08:28:01.977Z,97392.22
2018-09-30T08:30:29.196Z,97386.55
2018-09-30T08:32:56.481Z,97386.34
2018-09-30T08:35:23.460Z,97390.97
2018-09-30T08:37:50.491Z,97384.88
2018-09-30T08:40:17.434Z,97374.88
2018-09-30T08:42:44.426Z,97381.09
2018-09-30T08:45:11.562Z,97387.92
2018-09-30T08:47:38.684Z,97387.77
2018-09-30T08:50:05.787Z,97381.33
2018-09-30T08:52:33.506Z,97373.65
2018-09-30T08:55:00.506Z,97373.63
2018-09-30T08:57:27.505Z,97373.39
2018-09-30T08:59:54.511Z,97370.83
2018-09-30T09:02:21.945Z,97365.05
2018-09-30T09:04:48.927Z,97363.90
2018-09-30T09:07:15.879Z,97365.16
2018-09-30T09:09:42.869Z,97365.30
2018-09-30T09:12:10.365Z,97365.14
2018-09-30T09:14:37.901Z,97364.64
2018-09-30T09:17:05.697Z,97360.97
2018-09-30T09:19:33.126Z,97366.06
2018-09-30T09:22:01.085Z,97356.80
2018-09-30T09:24:28.958Z,97352.03
2018-09-30T09:26:56.210Z,97361.98
2018-09-30T09:29:23.341Z,97358.80
2018-09-30T09:31:50.591Z,97354.56
2018-09-30T09:34:17.750Z,97345.87
2018-09-30T09:36:46.395Z,97342.33
2018-09-30T09:39:13.956Z,97344.33
2018-09-30T09:41:41.736Z,97344.06
2018-09-30T09:44:10.156Z,97334.19
2018-09-30T09:46:37.436Z,97341.49
2018-09-30T09:49:04.969Z,97336.34
2018-09-30T09:51:32.440Z,97330.45
2018-09-30T09:54:00.125Z,97319.42
2018-09-30T09:56:27.665Z,97310.19
2018-09-30T09:58:56.858Z,97306.17
2018-09-30T10:01:24.322Z,97302.39
2018-09-30T10:03:51.776Z,97291.52
2018-09-30T10:06:19.436Z,97296.63
2018-09-30T10:08:47.126Z,97284.33
2018-09-30T10:11:15.021Z,97281.45
2018-09-30T10:13:42.561Z,97271.94
2018-09-30T10:16:11.059Z,97268.93
2018-09-30T10:18:38.561Z,97266.50
2018-09-30T10:21:06.045Z,97265.93
2018-09-30T10:23:33.693Z,97262.36
2018-09-30T10:26:01.870Z,97255.18
2018-09-30T10:28:29.414Z,97256.05
2018-09-30T10:30:57.957Z,97252.86
2018-09-30T10:33:26.485Z,97250.88
2018-09-30T10:35:54.213Z,97245.10
2018-09-30T10:38:21.974Z,97247.52
2018-09-30T10:40:49.533Z,97235.89
2018-09-30T10:43:19.112Z,97235.86
2018-09-30T10:45:46.612Z,97234.33
2018-09-30T10:48:14.663Z,97228.23
2018-09-30T10:50:42.110Z,97223.55
2018-09-30T10:53:09.974Z,97219.88
2018-09-30T10:55:38.703Z,97212.37
2018-09-30T10:58:06.831Z,97214.28
2018-09-30T11:00:36.974Z,97202.80
2018-09-30T11:03:04.703Z,97194.39
2018-09-30T11:05:32.633Z,97188.37
2018-09-30T11:08:00.709Z,97186.11
2018-09-30T11:10:30.675Z,97177.70
2018-09-30T11:12:58.204Z,97174.73
2018-09-30T11:15:26.748Z,97170.02
2018-09-30T11:17:54.966Z,97171.96
2018-09-30T11:20:22.664Z,97165.80
2018-09-30T11:22:51.496Z,97153.42
2018-09-30T11:25:20.178Z,97153.52
2018-09-30T11:27:48.174Z,97148.55
2018-09-30T11:30:16.065Z,97149.80
2018-09-30T11:32:43.751Z,97142.42
2018-09-30T11:35:11.671Z,97136.92
2018-09-30T11:37:41.525Z,97127.03
2018-09-30T11:40:08.950Z,97121.66
2018-09-30T11:42:36.713Z,97124.98
2018-09-30T11:45:04.606Z,97112.81
2018-09-30T11:47:32.171Z,97110.21
2018-09-30T11:50:00.326Z,97096.18
2018-09-30T11:52:28.177Z,97099.43
2018-09-30T11:54:55.807Z,97093.47
2018-09-30T11:57:24.421Z,97095.44
2018-09-30T11:59:52.418Z,97093.66
2018-09-30T12:02:20.776Z,97086.97
2018-09-30T12:04:48.734Z,97084.02
2018-09-30T12:07:18.044Z,97081.80
2018-09-30T12:09:46.821Z,97078.34
2018-09-30T12:12:16.135Z,97071.26
2018-09-30T12:14:43.486Z,97068.20
2018-09-30T12:17:11.761Z,97063.45
2018-09-30T12:19:38.825Z,97066.73
2018-09-30T12:22:05.804Z,97058.20
2018-09-30T12:24:33.257Z,97056.54
2018-09-30T12:27:00.851Z,97054.84
2018-09-30T12:29:28.323Z,97056.81
2018-09-30T12:31:57.767Z,97057.41
2018-09-30T12:34:26.965Z,97056.25
2018-09-30T12:36:54.677Z,97056.11
2018-09-30T12:39:22.360Z,97049.44
2018-09-30T12:41:49.855Z,97050.02
2018-09-30T12:44:17.436Z,97059.75
2018-09-30T12:46:44.979Z,97043.81
2018-09-30T12:49:11.955Z,97045.13
2018-09-30T12:51:39.158Z,97048.09
2018-09-30T12:54:06.183Z,97047.22
2018-09-30T12:56:33.167Z,97063.23
2018-09-30T12:59:00.657Z,97055.16
2018-09-30T13:01:28.099Z,97050.44
2018-09-30T13:03:55.712Z,97063.88
2018-09-30T13:06:23.143Z,97060.12
2018-09-30T13:08:50.612Z,97057.41
2018-09-30T13:11:18.074Z,97055.03
2018-09-30T13:13:45.859Z,97063.71
2018-09-30T13:16:12.886Z,97067.21
2018-09-30T13:18:40.050Z,97075.23
2018-09-30T13:21:07.358Z,97063.17
2018-09-30T13:23:34.461Z,97068.23
2018-09-30T13:26:01.483Z,97068.95
2018-09-30T13:28:28.649Z,97057.94
2018-09-30T13:30:55.663Z,97075.83
2018-09-30T13:33:22.669Z,97066.80
2018-09-30T13:35:50.088Z,97074.84
2018-09-30T13:38:17.557Z,97065.30
2018-09-30T13:40:45.165Z,97067.83
2018-09-30T13:43:12.521Z,97057.62
2018-09-30T13:45:39.916Z,97061.22
2018-09-30T13:48:07.490Z,97048.22
2018-09-30T13:50:34.934Z,97056.97
2018-09-30T13:53:02.400Z,97060.52
2018-09-30T13:55:30.741Z,97056.25
2018-09-30T13:57:57.765Z,97065.22
2018-09-30T14:00:24.745Z,97062.69
2018-09-30T14:02:51.801Z,97068.38
2018-09-30T14:05:18.980Z,97068.06
2018-09-30T14:07:46.009Z,97064.31
2018-09-30T14:10:13.141Z,97070.52
2018-09-30T14:12:40.123Z,97078.89
2018-09-30T14:15:07.176Z,97061.30
2018-09-30T14:17:34.748Z,97097.87
2018-09-30T14:20:02.227Z,97094.83
2018-09-30T14:22:29.701Z,97097.27
2018-09-30T14:24:57.188Z,97101.80
2018-09-30T14:27:24.793Z,97114.03
2018-09-30T14:29:52.062Z,97108.69
2018-09-30T14:32:19.556Z,97113.45
2018-09-30T14:34:47.083Z,97129.44
2018-09-30T14:37:14.580Z,97121.83
2018-09-30T14:39:42.620Z,97117.70
2018-09-30T14:42:10.020Z,97115.75
2018-09-30T14:44:37.467Z,97119.87
2018-09-30T14:47:04.928Z,97113.42
2018-09-30T14:49:32.432Z,97113.28
2018-09-30T14:51:59.891Z,97110.52
2018-09-30T14:54:27.419Z,97123.55
2018-09-30T14:56:54.847Z,97124.66
2018-09-30T14:59:22.288Z,97130.06
2018-09-30T15:01:49.739Z,97136.77
2018-09-30T15:04:17.298Z,97136.79
2018-09-30T15:06:44.762Z,97137.09
2018-09-30T15:09:12.204Z,97136.43
2018-09-30T15:11:39.630Z,97133.73
2018-09-30T15:14:07.188Z,97144.05
2018-09-30T15:16:34.694Z,97142.56
2018-09-30T15:19:02.146Z,97140.83
2018-09-30T15:21:29.615Z,97141.31
2018-09-30T15:23:57.484Z,97153.66
2018-09-30T15:26:24.923Z,97160.68
2018-09-30T15:28:52.408Z,97161.05
2018-09-30T15:31:20.654Z,97152.77
2018-09-30T15:33:48.218Z,97157.81
2018-09-30T15:36:15.636Z,97166.06
2018-09-30T15:38:43.125Z,97163.30
2018-09-30T15:41:10.578Z,97152.92
2018-09-30T15:43:38.105Z,97140.10
2018-09-30T15:46:05.664Z,97144.33
2018-09-30T15:48:33.199Z,97144.82
2018-09-30T15:51:00.693Z,97167.06
2018-09-30T15:53:28.605Z,97167.42
2018-09-30T15:55:56.131Z,97155.09
2018-09-30T15:58:23.607Z,97147.55
2018-09-30T16:00:51.150Z,97131.40
2018-09-30T16:03:18.842Z,97124.71
2018-09-30T16:05:46.428Z,97121.73
2018-09-30T16:08:14.017Z,97137.56
2018-09-30T16:10:41.822Z,97125.48
2018-09-30T16:13:09.378Z,97127.00
2018-09-30T16:15:37.554Z,97114.89
2018-09-30T16:18:05.552Z,97106.64
2018-09-30T16:20:34.250Z,97080.40
2018-09-30T16:23:01.713Z,97035.81
2018-09-30T16:25:29.134Z,96985.34
2018-09-30T16:27:56.663Z,96996.02
2018-09-30T16:30:24.380Z,96992.88
2018-09-30T16:32:51.915Z,97028.92
2018-09-30T16:35:20.522Z,97073.91
2018-09-30T16:37:48.068Z,97089.80
2018-09-30T16:40:15.471Z,97069.52
2018-09-30T16:42:43.017Z,97074.15
2018-09-30T16:45:10.499Z,97066.08
2018-09-30T16:47:37.943Z,97081.52
2018-09-30T16:50:05.470Z,97096.06
2018-09-30T16:52:32.914Z,97111.95
2018-09-30T16:55:00.380Z,97119.27
2018-09-30T16:57:27.872Z,97119.56
2018-09-30T16:59:55.428Z,97117.92
2018-09-30T17:02:23.044Z,97124.64
2018-09-30T17:04:50.500Z,97133.66
2018-09-30T17:07:17.914Z,97138.13
2018-09-30T17:09:45.345Z,97127.65
2018-09-30T17:12:12.755Z,97127.55
2018-09-30T17:14:40.164Z,97128.85
2018-09-30T17:17:07.616Z,97136.38
2018-09-30T17:19:35.728Z,97137.80
2018-09-30T17:22:03.218Z,97139.16
2018-09-30T17:24:30.789Z,97146.06
2018-09-30T17:26:58.259Z,97159.52
2018-09-30T17:29:25.656Z,97164.91
2018-09-30T17:31:53.181Z,97165.48
2018-09-30T17:34:20.624Z,97161.47
2018-09-30T17:36:48.089Z,97157.62
2018-09-30T17:39:15.585Z,97156.81
2018-09-30T17:41:43.005Z,97153.90
2018-09-30T17:44:10.432Z,97163.18
2018-09-30T17:46:37.903Z,97155.72
2018-09-30T17:49:05.366Z,97164.93
2018-09-30T17:51:32.905Z,97162.82
2018-09-30T17:54:00.849Z,97163.32
2018-09-30T17:56:28.281Z,97159.54
2018-09-30T17:58:55.711Z,97162.38
2018-09-30T18:01:23.556Z,97153.77
2018-09-30T18:03:50.982Z,97155.02
2018-09-30T18:06:18.414Z,97160.16
2018-09-30T18:08:45.833Z,97154.97
2018-09-30T18:11:13.976Z,97165.19
2018-09-30T18:13:41.449Z,97172.48
2018-09-30T18:16:09.004Z,97165.53
2018-09-30T18:18:36.484Z,97172.33
2018-09-30T18:21:03.929Z,97178.10
2018-09-30T18:23:33.460Z,97174.44
2018-09-30T18:26:01.069Z,97173.77
2018-09-30T18:28:28.618Z,97182.56
2018-09-30T18:30:56.162Z,97194.19
2018-09-30T18:33:23.649Z,97187.35
2018-09-30T18:35:51.108Z,97194.67
2018-09-30T18:38:18.564Z,97184.93
2018-09-30T18:40:46.033Z,97176.20
2018-09-30T18:43:13.712Z,97183.22
2018-09-30T18:45:41.170Z,97181.67
2018-09-30T18:48:08.657Z,97184.41
2018-09-30T18:50:36.052Z,97182.86
2018-09-30T18:53:03.457Z,97178.53
2018-09-30T18:55:30.965Z,97188.28
2018-09-30T18:57:58.424Z,97187.43
2018-09-30T19:00:25.890Z,97190.25
2018-09-30T19:02:53.319Z,97193.12
2018-09-30T19:05:20.798Z,97197.72
2018-09-30T19:07:48.215Z,97199.00
2018-09-30T19:10:15.662Z,97200.44
2018-09-30T19:12:43.158Z,97208.80
2018-09-30T19:15:10.618Z,97201.65
2018-09-30T19:17:38.196Z,97200.91
2018-09-30T19:20:05.683Z,97198.52
2018-09-30T19:22:33.151Z,97196.02
2018-09-30T19:25:01.220Z,97194.22
2018-09-30T19:27:28.732Z,97192.16
2018-09-30T19:29:56.403Z,97184.94
2018-09-30T19:32:25.614Z,97191.14
2018-09-30T19:34:56.924Z,97192.02
2018-09-30T19:37:24.562Z,97192.78
2018-09-30T19:39:52.147Z,97187.91
2018-09-30T19:42:20.882Z,97187.05
2018-09-30T19:44:48.605Z,97174.92
2018-09-30T19:47:17.225Z,97175.53
2018-09-30T19:49:45.078Z,97178.36
2018-09-30T19:52:12.851Z,97185.11
2018-09-30T19:54:40.299Z,97177.38
2018-09-30T19:57:07.815Z,97170.72
2018-09-30T19:59:35.358Z,97175.65
2018-09-30T20:02:02.975Z,97167.59
2018-09-30T20:04:30.426Z,97167.95
2018-09-30T20:06:57.919Z,97160.98
2018-09-30T20:09:25.402Z,97158.16
2018-09-30T20:11:53.031Z,97156.23
2018-09-30T20:14:20.531Z,97151.06
2018-09-30T20:16:47.993Z,97162.84
2018-09-30T20:19:15.481Z,97165.11
2018-09-30T20:21:42.909Z,97163.20
2018-09-30T20:24:10.409Z,97164.63
2018-09-30T20:26:37.890Z,97160.08
2018-09-30T20:29:05.337Z,97157.16
2018-09-30T20:31:32.799Z,97152.42
2018-09-30T20:34:00.437Z,97145.19
2018-09-30T20:36:27.917Z,97148.78
2018-09-30T20:38:55.474Z,97144.47
2018-09-30T20:41:22.957Z,97142.66
2018-09-30T20:43:50.424Z,97136.73
2018-09-30T20:46:17.853Z,97132.50
2018-09-30T20:48:45.280Z,97126.03
2018-09-30T20:51:12.668Z,97126.28
2018-09-30T20:53:40.106Z,97126.50
2018-09-30T20:56:07.535Z,97139.19
2018-09-30T20:58:34.979Z,97142.34
2018-09-30T21:01:02.460Z,97146.33
2018-09-30T21:03:29.937Z,97140.69
2018-09-30T21:05:57.363Z,97125.36
2018-09-30T21:08:25.615Z,97137.84
2018-09-30T21:10:53.046Z,97141.77
2018-09-30T21:13:20.495Z,97141.38
2018-09-30T21:15:48.061Z,97144.59
2018-09-30T21:18:15.563Z,97139.45
2018-09-30T21:20:43.027Z,97137.69
2018-09-30T21:23:10.445Z,97123.19
2018-09-30T21:25:37.929Z,97120.48
2018-09-30T21:28:05.408Z,97124.70
2018-09-30T21:30:32.859Z,97118.44
2018-09-30T21:33:00.251Z,97116.78
2018-09-30T21:35:27.683Z,97116.75
2018-09-30T21:37:55.119Z,97105.58
2018-09-30T21:40:22.521Z,97108.52
2018-09-30T21:42:49.983Z,97099.80
2018-09-30T21:45:17.469Z,97106.09
2018-09-30T21:47:44.917Z,97102.92
2018-09-30T21:50:12.364Z,97107.40
2018-09-30T21:52:40.145Z,97103.09
2018-09-30T21:55:07.661Z,97108.33
2018-09-30T21:57:34.998Z,97107.34
2018-09-30T22:00:02.503Z,97115.95
2018-09-30T22:02:29.942Z,97107.73
2018-09-30T22:04:57.399Z,97110.67
2018-09-30T22:07:24.884Z,97106.11
2018-09-30T22:09:52.296Z,97100.75
2018-09-30T22:12:20.345Z,97104.14
2018-09-30T22:14:47.789Z,97105.39
2018-09-30T22:17:15.226Z,97102.33
2018-09-30T22:19:42.626Z,97095.00
2018-09-30T22:22:10.095Z,97095.56
2018-09-30T22:24:37.504Z,97085.81
2018-09-30T22:27:05.112Z,97093.36
2018-09-30T22:29:32.499Z,97086.83
2018-09-30T22:31:59.957Z,97092.11
2018-09-30T22:34:27.396Z,97090.72
2018-09-30T22:36:54.842Z,97091.53
2018-09-30T22:39:22.333Z,97094.25
2018-09-30T22:41:49.814Z,97096.70
2018-09-30T22:44:17.320Z,97092.73
2018-09-30T22:46:44.856Z,97095.16
2018-09-30T22:49:12.242Z,97094.04
2018-09-30T22:51:39.759Z,97087.38
2018-09-30T22:54:07.218Z,97090.13
2018-09-30T22:56:34.967Z,97080.19
2018-09-30T22:59:02.424Z,97083.61
2018-09-30T23:01:29.825Z,97071.64
2018-09-30T23:03:57.277Z,97077.94
2018-09-30T23:06:24.909Z,97082.77
2018-09-30T23:08:52.401Z,97076.36
2018-09-30T23:11:19.843Z,97075.84
2018-09-30T23:13:47.377Z,97072.95
2018-09-30T23:16:14.818Z,97070.30
2018-09-30T23:18:42.277Z,97066.53
2018-09-30T23:21:09.695Z,97057.27
2018-09-30T23:23:37.102Z,97052.52
2018-09-30T23:26:04.552Z,97045.84
2018-09-30T23:28:32.012Z,97044.18
2018-09-30T23:30:59.463Z,97042.00
2018-09-30T23:33:26.919Z,97041.67
2018-09-30T23:35:54.377Z,97034.16
2018-09-30T23:38:21.809Z,97030.30
2018-09-30T23:40:49.235Z,97031.41
2018-09-30T23:43:16.638Z,97041.41
2018-09-30T23:45:44.067Z,97039.18
2018-09-30T23:48:11.538Z,97029.06
2018-09-30T23:50:39.012Z,97029.37
2018-09-30T23:53:06.506Z,97029.23
2018-09-30T23:55:33.951Z,97023.23
2018-09-30T23:58:01.466Z,97020.82
